• Join FlightAware (Why Join?)
  • Login
  • US Flag 
08:44AM EDT


 

Airport Tracker/Info


-or-


 

Live Flight TrackerFlight Track Log ✈ UPS109 ✈ 01-May-2013 ✈ PANC - KSDF

Flight Track Log - Related Links

Times and Time Zones

All times are in EDT time to prevent confusion due to time zone crossing. See the UPS109 flight status page for this flight to view local times or setup timezone preferences in your user account.

Time Position Orientation Groundspeed Altitude Reporting Facility
EDT Latitude Longitude Course Direction KTS MPH feet Rate Location/Type
06:26PM 61.1910 -150.0070 235° Southwest  Level FlightAware
06:33PM 61.1880 -150.0080 345° North 500 240 Climbing FlightAware
06:33PM 61.2150 -150.0340 335° Northwest 181 208 2,000 2,220 Climbing FlightAware
06:34PM 61.2210 -150.0460 316° Northwest 194 223 2,200 1,500 Climbing FlightAware
06:34PM 61.2440 -150.0870 319° Northwest 228 262 3,000 1,800 Climbing FlightAware
06:35PM 61.2720 -150.1270 326° Northwest 250 288 4,000 1,860 Climbing FlightAware
06:35PM 61.2840 -150.1320 349° North 256 295 4,400 2,520 Climbing FlightAware
06:35PM 61.3130 -150.1000 28° Northeast 258 297 5,700 2,820 Climbing FlightAware
06:36PM 61.3360 -150.0430 50° Northeast 268 308 7,000 2,700 Climbing FlightAware
06:36PM 61.3390 -150.0290 66° East 268 308 7,300 2,160 Climbing FlightAware
06:36PM 61.3420 -149.9940 80° East 266 306 7,900 2,400 Climbing FlightAware
06:37PM 61.3380 -149.9140 96° East 272 313 9,300 2,700 Climbing FlightAware
06:37PM 61.3280 -149.7990 100° East 291 335 11,100 1,560 Climbing FlightAware
06:39PM 61.3120 -149.5650 98° East 389 448 12,200 1,740 Climbing FlightAware
06:40PM 61.2930 -149.3000 98° East 414 476 15,200 2,400 Climbing FlightAware
06:40PM 61.2780 -149.1620 103° East 428 493 16,500 2,160 Climbing FlightAware
06:41PM 61.2590 -148.9740 102° East 445 512 18,100 2,160 Climbing FlightAware
06:42PM 61.2420 -148.8080 102° East 455 524 19,600 2,160 Climbing FlightAware
06:42PM 61.2230 -148.6320 103° East 465 535 21,000 2,040 Climbing FlightAware
06:43PM 61.1980 -148.4410 105° East 472 543 22,500 1,080 Climbing FlightAware
06:44PM 61.1770 -148.3010 107° East 472 543 22,500  Level FlightAware
06:45PM 61.1500 -148.1170 107° East 472 543 22,500  Level FlightAware
06:45PM 61.1280 -147.9700 107° East 472 543 22,500  Level FlightAware
06:46PM 61.1060 -147.8230 107° East 472 543 22,500  Level FlightAware
06:47PM 61.0850 -147.6760 106° East 472 543 22,500 4,380 Level FlightAware
06:47PM 61.0167 -147.3000 106° East 530 610 29,000 4,620 Climbing Anchorage Center
06:48PM 60.9667 -147.0167 110° East 510 587 31,000 960 Climbing Anchorage Center
06:49PM 60.9167 -146.7333 110° East 510 587 31,000  Level Anchorage Center
06:50PM 60.8833 -146.4500 103° East 510 587 31,000  Level Anchorage Center
06:51PM 60.8333 -146.1833 111° Southeast 520 598 31,000  Level Anchorage Center
06:52PM 60.7833 -145.9000 110° East 510 587 31,000  Level Anchorage Center
06:53PM 60.7333 -145.6333 111° Southeast 510 587 31,000  Level Anchorage Center
06:54PM 60.6833 -145.3500 110° East 510 587 31,000  Level Anchorage Center
06:55PM 60.6333 -145.0833 111° Southeast 510 587 31,000  Level Anchorage Center
06:56PM 60.5833 -144.8000 110° East 510 587 31,000  Level Anchorage Center
06:57PM 60.5333 -144.5333 111° Southeast 510 587 31,000  Level Anchorage Center
06:58PM 60.4833 -144.2667 111° Southeast 510 587 31,000  Level Anchorage Center
06:59PM 60.4333 -144.0000 111° Southeast 510 587 31,000  Level Anchorage Center
07:00PM 60.3833 -143.7333 111° Southeast 500 575 31,000  Level Anchorage Center
07:01PM 60.3333 -143.4667 111° Southeast 500 575 31,000  Level Anchorage Center
07:02PM 60.2833 -143.2000 111° Southeast 510 587 31,000  Level Anchorage Center
07:03PM 60.2167 -142.9333 117° Southeast 500 575 31,000  Level Anchorage Center
07:04PM 60.1667 -142.6667 111° Southeast 500 575 31,000  Level Anchorage Center
07:05PM 60.1167 -142.4000 111° Southeast 490 564 31,000  Level Anchorage Center
07:06PM 60.0667 -142.1500 112° Southeast 500 575 31,000  Level Anchorage Center
07:07PM 60.0167 -141.9000 112° Southeast 490 564 31,000  Level Anchorage Center
07:08PM 59.9500 -141.6500 118° Southeast 490 564 31,000  Level Anchorage Center
07:09PM 59.9000 -141.3833 110° East 490 564 31,000  Level Anchorage Center
07:10PM 59.8500 -141.1500 113° Southeast 480 552 31,000  Level Anchorage Center
07:11PM 59.7833 -140.8833 116° Southeast 490 564 31,000  Level Anchorage Center
07:12PM 59.7333 -140.6500 113° Southeast 480 552 31,000  Level Anchorage Center
07:13PM 59.6833 -140.4000 112° Southeast 480 552 31,000  Level Anchorage Center
07:14PM 59.6167 -140.1667 119° Southeast 480 552 31,000  Level Anchorage Center
07:15PM 59.5667 -139.9167 111° Southeast 480 552 31,000  Level Anchorage Center
07:16PM 59.5167 -139.7000 114° Southeast 470 541 31,000  Level Anchorage Center
07:17PM 59.4667 -139.4500 111° Southeast 470 541 31,000  Level Anchorage Center
07:18PM 59.4500 -139.2000 97° East 490 564 31,000  Level Anchorage Center
07:19PM 59.4167 -138.9500 105° East 480 552 31,000  Level Anchorage Center
07:20PM 59.4000 -138.6833 97° East 480 552 31,000  Level Anchorage Center
07:21PM 59.3667 -138.4333 105° East 490 564 31,000  Level Anchorage Center
07:22PM 59.3333 -138.1667 104° East 480 552 31,000  Level Anchorage Center
07:23PM 59.3000 -137.9167 105° East 490 564 31,000  Level Anchorage Center
07:24PM 59.2667 -137.6500 104° East 500 575 31,000  Level Anchorage Center
07:25PM 59.2333 -137.3833 104° East 500 575 31,000  Level Anchorage Center
07:26PM 59.2000 -137.1167 104° East 500 575 31,000  Level Anchorage Center
07:27PM 59.1667 -136.8500 104° East 500 575 31,000  Level Anchorage Center
07:28PM 59.1333 -136.5833 104° East 510 587 31,000  Level Anchorage Center
07:29PM 59.0833 -136.3167 110° East 500 575 31,000  Level Anchorage Center
07:30PM 59.0500 -136.0500 104° East 510 587 31,000  Level Anchorage Center
07:31PM 59.0167 -135.7833 104° East 510 587 31,000  Level Anchorage Center
07:32PM 58.9667 -135.5167 110° East 510 587 31,000  Level Anchorage Center
07:33PM 58.9333 -135.2500 104° East 510 587 31,000  Level Anchorage Center
07:34PM 58.8833 -134.9833 110° East 510 587 31,000  Level Anchorage Center
07:35PM 58.8500 -134.7000 103° East 530 610 31,000  Level Anchorage Center
07:36PM 58.8167 -134.4333 103° East 510 587 31,000  Level Anchorage Center
07:37PM 58.7667 -134.1667 110° East 520 598 31,000  Level Anchorage Center
07:38PM 58.7167 -133.9000 110° East 510 587 31,000  Level Anchorage Center
07:40PM 58.6865 -133.6338 108° East  Level FlightAware Approximate
07:47PM 58.3927 -131.9461 108° East  Level FlightAware Approximate
07:48PM 58.3489 -131.7074 109° East  Level FlightAware Approximate
07:49PM 58.3046 -131.4693 110° East  Level FlightAware Approximate
07:50PM 58.2595 -131.2320 110° East  Level FlightAware Approximate
07:51PM 58.2141 -130.9953 110° East  Level FlightAware Approximate
07:52PM 58.1681 -130.7592 110° East  Level FlightAware Approximate
07:53PM 58.1218 -130.5237 110° East  Level FlightAware Approximate
07:54PM 58.0750 -130.2889 111° Southeast  Level FlightAware Approximate
07:55PM 58.0278 -130.0546 111° Southeast  Level FlightAware Approximate
07:56PM 57.9806 -129.8206 111° Southeast  Level FlightAware Approximate
07:57PM 57.9332 -129.5871 111° Southeast  Level FlightAware Approximate
07:58PM 57.8854 -129.3543 111° Southeast  Level FlightAware Approximate
07:59PM 57.8371 -129.1220 111° Southeast  Level FlightAware Approximate
08:00PM 57.7885 -128.8904 111° Southeast  Level FlightAware Approximate
08:01PM 57.7394 -128.6594 112° Southeast  Level FlightAware Approximate
08:02PM 57.6898 -128.4290 112° Southeast  Level FlightAware Approximate
08:03PM 57.6399 -128.1993 112° Southeast  Level FlightAware Approximate
08:04PM 57.5896 -127.9702 112° Southeast  Level FlightAware Approximate
08:05PM 57.5388 -127.7417 112° Southeast  Level FlightAware Approximate
08:06PM 57.4876 -127.5138 113° Southeast  Level FlightAware Approximate
08:07PM 57.4360 -127.2867 113° Southeast  Level FlightAware Approximate
08:08PM 57.3840 -127.0601 113° Southeast  Level FlightAware Approximate
08:09PM 57.3316 -126.8342 113° Southeast  Level FlightAware Approximate
08:10PM 57.2788 -126.6089 113° Southeast  Level FlightAware Approximate
08:11PM 57.2256 -126.3843 114° Southeast  Level FlightAware Approximate
08:12PM 57.1717 -126.1606 114° Southeast  Level FlightAware Approximate
08:13PM 57.1175 -125.9375 114° Southeast  Level FlightAware Approximate
08:13PM 56.8500 -125.0167 115° Southeast 560 644 31,000  Level Edmonton Center
08:14PM 57.0628 -125.7150 114° Southeast  Level FlightAware Approximate
08:14PM 56.8000 -124.8000 113° Southeast 530 610 31,000  Level Edmonton Center
08:15PM 57.0078 -125.4933 114° Southeast  Level FlightAware Approximate
08:15PM 56.7333 -124.5333 114° Southeast 530 610 31,000  Level Edmonton Center
08:16PM 56.9523 -125.2721 115° Southeast  Level FlightAware Approximate
08:16PM 56.6833 -124.2833 110° East 530 610 31,000  Level Edmonton Center
08:17PM 56.8965 -125.0517 115° Southeast  Level FlightAware Approximate
08:17PM 56.6167 -124.0500 117° Southeast 530 610 31,000  Level Edmonton Center
08:18PM 56.8410 -124.8313 115° Southeast  Level FlightAware Approximate
08:18PM 56.5500 -123.8000 116° Southeast 530 610 31,000  Level Edmonton Center
08:19PM 56.7853 -124.6113 115° Southeast  Level FlightAware Approximate
08:19PM 56.4667 -123.5667 123° Southeast 530 610 31,000  Level Edmonton Center
08:20PM 56.4167 -123.3167 110° East 530 610 31,000  Level Edmonton Center
08:21PM 56.3500 -123.0667 116° Southeast 530 610 31,000  Level Edmonton Center
08:22PM 56.2833 -122.8167 116° Southeast 530 610 31,000  Level Edmonton Center
08:23PM 56.2167 -122.6000 119° Southeast 530 610 31,000  Level Edmonton Center
08:25PM 56.1351 -122.2959 116° Southeast  Level FlightAware Approximate
08:25PM 56.0833 -122.1167 116° Southeast 530 610 31,000  Level Edmonton Center
08:26PM 56.0167 -121.9000 119° Southeast 530 610 31,000  Level Edmonton Center
08:27PM 55.9333 -121.6500 121° Southeast 530 610 31,000  Level Edmonton Center
08:28PM 55.8667 -121.4333 119° Southeast 520 598 31,000  Level Edmonton Center
08:29PM 55.8000 -121.1833 115° Southeast 520 598 31,000  Level Edmonton Center
08:30PM 55.7500 -120.9500 111° Southeast 520 598 31,000  Level Edmonton Center
08:31PM 55.6667 -120.7333 124° Southeast 520 598 31,000  Level Edmonton Center
08:32PM 55.6000 -120.4833 115° Southeast 530 610 31,000  Level Edmonton Center
08:33PM 55.5333 -120.2833 120° Southeast 520 598 31,000  Level Edmonton Center
08:34PM 55.4500 -120.0333 120° Southeast 520 598 31,000  Level Edmonton Center
08:35PM 55.3833 -119.8167 118° Southeast 520 598 31,000  Level Edmonton Center
08:36PM 55.3167 -119.5833 117° Southeast 530 610 31,000  Level Edmonton Center
08:37PM 55.2333 -119.3667 124° Southeast 530 610 31,000  Level Edmonton Center
08:38PM 55.1667 -119.1333 116° Southeast 520 598 31,000  Level Edmonton Center
08:39PM 55.0833 -118.9167 124° Southeast 530 610 31,000  Level Edmonton Center
08:40PM 55.0167 -118.6833 116° Southeast 530 610 31,000  Level Edmonton Center
08:41PM 54.9333 -118.4833 126° Southeast 520 598 31,000  Level Edmonton Center
08:42PM 54.8500 -118.2667 124° Southeast 520 598 31,000  Level Edmonton Center
08:43PM 54.7833 -118.0333 116° Southeast 520 598 31,000  Level Edmonton Center
08:44PM 54.7000 -117.8333 126° Southeast 520 598 31,000  Level Edmonton Center
08:45PM 54.6333 -117.6333 120° Southeast 530 610 31,000  Level Edmonton Center
08:51PM 54.1410 -116.2140 120° Southeast 534 615 31,000  Level FlightAware
08:52PM 54.0850 -116.0700 124° Southeast 534 615 31,000  Level FlightAware
08:53PM 54.0440 -115.9580 122° Southeast 534 615 31,000  Level FlightAware
08:54PM 53.9690 -115.7750 125° Southeast 535 616 31,000  Level FlightAware
08:54PM 53.9060 -115.6160 124° Southeast 533 613 31,000  Level FlightAware
08:55PM 53.8560 -115.4910 124° Southeast 532 612 31,000  Level FlightAware
08:56PM 53.7950 -115.3390 124° Southeast 532 612 31,000  Level FlightAware
08:57PM 53.7110 -115.1310 124° Southeast 531 611 31,000  Level FlightAware
08:57PM 53.6540 -114.9890 124° Southeast 535 616 31,000  Level FlightAware
08:58PM 53.5920 -114.8390 125° Southeast 535 616 31,000  Level FlightAware
08:59PM 53.5170 -114.6560 125° Southeast 537 618 31,000  Level FlightAware
09:00PM 53.4580 -114.5140 125° Southeast 537 618 31,000  Level FlightAware
09:01PM 53.3420 -114.2360 125° Southeast 537 618 31,000  Level FlightAware
09:02PM 53.2420 -113.9990 125° Southeast 535 616 31,000  Level FlightAware
09:04PM 53.1040 -113.7270 130° Southeast 540 621 31,000  Level FlightAware
09:05PM 52.9800 -113.5200 135° Southeast 543 625 31,000  Level FlightAware
09:06PM 52.8560 -113.3130 135° Southeast 544 626 31,000  Level FlightAware
09:07PM 52.7850 -113.1940 135° Southeast 543 625 31,000  Level FlightAware
09:07PM 52.7130 -113.0760 135° Southeast 541 623 31,000  Level FlightAware
09:08PM 52.6340 -112.9460 135° Southeast 541 623 31,000  Level FlightAware
09:09PM 52.5640 -112.8320 135° Southeast 540 621 31,000  Level FlightAware
09:09PM 52.4830 -112.7000 135° Southeast 531 611 31,000  Level FlightAware
09:10PM 52.4150 -112.5890 135° Southeast 530 610 31,000  Level FlightAware
09:11PM 52.3340 -112.4600 136° Southeast 527 606 31,000  Level FlightAware
09:12PM 52.2640 -112.3480 136° Southeast 528 608 31,000  Level FlightAware
09:12PM 52.1930 -112.2340 135° Southeast 525 604 31,000  Level FlightAware
09:13PM 52.1130 -112.1080 136° Southeast 524 603 31,000  Level FlightAware
09:14PM 52.0440 -111.9980 136° Southeast 524 603 31,000  Level FlightAware
09:14PM 51.9630 -111.8720 136° Southeast 524 603 31,000  Level FlightAware
09:15PM 51.9070 -111.7840 136° Southeast 524 603 31,000  Level FlightAware
09:16PM 51.8290 -111.6630 136° Southeast 524 603 31,000  Level FlightAware
09:16PM 51.7470 -111.5350 136° Southeast 531 611 31,000  Level FlightAware
09:17PM 51.6460 -111.3800 136° Southeast 532 612 31,000  Level FlightAware
09:18PM 51.5740 -111.2700 136° Southeast 533 613 31,000  Level FlightAware
09:19PM 51.4920 -111.1440 136° Southeast 533 613 31,000  Level FlightAware
09:19PM 51.4310 -111.0530 137° Southeast 533 613 31,000  Level FlightAware
09:20PM 51.3610 -110.9470 137° Southeast 533 613 31,000  Level FlightAware
09:21PM 51.2840 -110.8290 136° Southeast 534 615 31,000  Level FlightAware
09:21PM 51.2150 -110.7260 137° Southeast 533 613 31,000  Level FlightAware
09:22PM 51.1400 -110.6100 136° Southeast 533 613 31,000  Level FlightAware
09:23PM 51.0790 -110.5170 136° Southeast 533 613 31,000  Level FlightAware
09:24PM 51.0190 -110.4250 136° Southeast 533 613 31,000  Level FlightAware
09:24PM 50.9590 -110.3320 136° Southeast 533 613 31,000  Level FlightAware
09:25PM 50.8980 -110.2400 136° Southeast 533 613 31,000  Level FlightAware
09:26PM 50.8230 -110.1250 136° Southeast 533 613 31,000  Level FlightAware
09:26PM 50.7630 -110.0320 136° Southeast 533 613 31,000  Level FlightAware
09:27PM 50.7020 -109.9400 136° Southeast 533 613 31,000  Level FlightAware
09:28PM 50.6420 -109.8490 136° Southeast 533 613 31,000  Level FlightAware
09:28PM 50.5820 -109.7570 136° Southeast 533 613 31,000  Level FlightAware
09:29PM 50.5060 -109.6420 136° Southeast 533 613 31,000  Level FlightAware
09:30PM 50.4460 -109.5510 136° Southeast 533 613 31,000  Level FlightAware
09:31PM 50.3860 -109.4590 136° Southeast 533 613 31,000  Level FlightAware
09:31PM 50.1167 -109.1667 136° Southeast 540 621 31,000  Level Edmonton Center
09:32PM 50.0333 -109.0833 147° Southeast 550 633 31,000  Level Winnipeg Center
09:33PM 49.9167 -108.9333 140° Southeast 550 633 31,000  Level Winnipeg Center
09:34PM 49.8167 -108.8000 139° Southeast 550 633 31,000  Level Winnipeg Center
09:35PM 49.7000 -108.6167 134° Southeast 550 633 31,000  Level Winnipeg Center
09:36PM 49.5833 -108.4833 143° Southeast 550 633 31,000  Level Winnipeg Center
09:37PM 49.4833 -108.3167 133° Southeast 540 621 31,000  Level Winnipeg Center
09:37PM 49.4333 -108.2500 139° Southeast 540 621 31,000  Level Edmonton Center
09:38PM 49.3667 -108.1667 141° Southeast 540 621 31,000  Level Winnipeg Center
09:39PM 49.2333 -108.0000 141° Southeast 550 633 31,000  Level Winnipeg Center
09:40PM 49.1333 -107.8833 143° Southeast 530 610 31,000  Level Winnipeg Center
09:41PM 49.0333 -107.7333 135° Southeast 530 610 31,000  Level Winnipeg Center
09:42PM 48.9167 -107.5667 137° Southeast 520 598 31,000  Level Winnipeg Center
09:43PM 48.8000 -107.4167 140° Southeast 520 598 31,000  Level Winnipeg Center
09:43PM 48.7667 -107.3667 135° Southeast 510 587 31,000  Level Edmonton Center
09:44PM 48.7000 -107.3000 147° Southeast 510 587 31,000  Level Winnipeg Center
09:44PM 48.6817 -107.2200 109° East 512 589 31,000  Level Salt Lake Center
09:45PM 48.5731 -107.0808 140° Southeast 513 590 31,000  Level Salt Lake Center
09:46PM 48.4661 -106.9450 140° Southeast 508 585 31,000  Level Salt Lake Center
09:47PM 48.3597 -106.8086 140° Southeast 505 581 31,000  Level Salt Lake Center
09:48PM 48.2528 -106.6744 140° Southeast 503 579 31,000  Level Salt Lake Center
09:49PM 48.1631 -106.4706 123° Southeast 493 567 31,000  Level Salt Lake Center
09:50PM 48.1039 -106.2881 116° Southeast 490 564 31,000  Level Salt Lake Center
09:51PM 48.0442 -106.1069 116° Southeast 488 562 31,100 660 Climbing Salt Lake Center
09:52PM 47.9819 -105.9256 117° Southeast 491 565 32,400 840 Climbing Salt Lake Center
09:53PM 47.9197 -105.7419 117° Southeast 495 570 32,900 240 Climbing Salt Lake Center
09:54PM 47.8597 -105.5614 116° Southeast 493 567 33,000  Climbing Salt Lake Center
09:55PM 47.7978 -105.3819 117° Southeast 491 565 33,000  Level Salt Lake Center
09:57PM 47.7358 -105.2008 117° Southeast 492 566 33,000  Level Salt Lake Center
09:58PM 47.6617 -104.9878 117° Southeast 490 564 33,000  Level Salt Lake Center
09:59PM 47.6008 -104.8083 117° Southeast 490 564 33,000  Level Salt Lake Center
10:00PM 47.5389 -104.6306 117° Southeast 489 563 33,000  Level Salt Lake Center
10:01PM 47.4742 -104.4522 118° Southeast 491 565 33,000  Level Salt Lake Center
10:02PM 47.4108 -104.2736 118° Southeast 494 568 33,000  Level Salt Lake Center
10:03PM 47.3481 -104.0981 118° Southeast 492 566 33,000  Level Salt Lake Center
10:04PM 47.2853 -103.9228 118° Southeast 492 566 33,000  Level Salt Lake Center
10:05PM 47.2094 -103.7117 118° Southeast 492 566 33,000  Level Salt Lake Center
10:06PM 47.1444 -103.5372 119° Southeast 491 565 33,000  Level Salt Lake Center
10:07PM 47.0811 -103.3644 118° Southeast 488 562 33,000  Level Minneapolis Center
10:08PM 47.0144 -103.1850 119° Southeast 488 562 33,000  Level Minneapolis Center
10:09PM 46.9517 -103.0169 119° Southeast 488 562 33,000  Level Minneapolis Center
10:10PM 46.8869 -102.8444 119° Southeast 487 560 33,000  Level Minneapolis Center
10:11PM 46.8283 -102.6669 116° Southeast 487 560 33,000  Level Minneapolis Center
10:12PM 46.7750 -102.4861 113° Southeast 487 560 33,000  Level Minneapolis Center
10:13PM 46.7217 -102.3058 113° Southeast 485 558 33,000  Level Minneapolis Center
10:14PM 46.6572 -102.0917 114° Southeast 482 555 33,000  Level Minneapolis Center
10:15PM 46.6039 -101.9150 114° Southeast 478 550 33,000  Level Minneapolis Center
10:16PM 46.5506 -101.7397 114° Southeast 477 549 33,000  Level Minneapolis Center
10:17PM 46.4933 -101.5531 114° Southeast 476 548 33,000  Level Minneapolis Center
10:18PM 46.4389 -101.3772 114° Southeast 479 551 33,000  Level Minneapolis Center
10:19PM 46.3839 -101.2006 114° Southeast 482 555 33,000  Level Minneapolis Center
10:20PM 46.3286 -101.0236 114° Southeast 482 555 33,000  Level Minneapolis Center
10:21PM 46.2731 -100.8481 115° Southeast 479 551 33,000  Level Minneapolis Center
10:22PM 46.2178 -100.6744 115° Southeast 474 545 33,000  Level Minneapolis Center
10:23PM 46.1628 -100.5025 115° Southeast 471 542 33,000  Level Minneapolis Center
10:24PM 46.1075 -100.3308 115° Southeast 471 542 33,000  Level Minneapolis Center
10:25PM 46.0517 -100.1589 115° Southeast 475 547 33,000  Level Minneapolis Center
10:26PM 45.9947 -99.9872 115° Southeast 473 544 33,000  Level Minneapolis Center
10:27PM 45.9333 -99.8211 118° Southeast 468 539 33,000  Level Minneapolis Center
10:28PM 45.8711 -99.6569 119° Southeast 466 536 33,000  Level Minneapolis Center
10:29PM 45.8092 -99.4936 119° Southeast 463 533 33,000  Level Minneapolis Center
10:30PM 45.7350 -99.2989 119° Southeast 462 532 33,000  Level Minneapolis Center
10:31PM 45.6728 -99.1375 119° Southeast 461 531 33,000  Level Minneapolis Center
10:32PM 45.6111 -98.9772 119° Southeast 459 528 33,000  Level Minneapolis Center
10:33PM 45.5489 -98.8175 119° Southeast 459 528 33,000  Level Minneapolis Center
10:38PM 45.2300 -98.0120 119° Southeast 442 509 33,000  Level FlightAware
10:39PM 45.1810 -97.8890 119° Southeast 444 511 33,000  Level FlightAware
10:40PM 45.1400 -97.7870 120° Southeast 445 512 33,000  Level FlightAware
10:41PM 45.1000 -97.6900 120° Southeast 447 514 33,000  Level FlightAware
10:41PM 45.0530 -97.5750 120° Southeast 448 516 33,000  Level FlightAware
10:42PM 45.0120 -97.4730 120° Southeast 448 516 33,000  Level FlightAware
10:43PM 44.9680 -97.3660 120° Southeast 447 514 33,000  Level FlightAware
10:43PM 44.9230 -97.2570 120° Southeast 447 514 33,000  Level FlightAware
10:44PM 44.8810 -97.1560 120° Southeast 446 513 33,000  Level FlightAware
10:45PM 44.8370 -97.0480 120° Southeast 445 512 33,000  Level FlightAware
10:45PM 44.7940 -96.9450 120° Southeast 445 512 33,000  Level FlightAware
10:46PM 44.7520 -96.8450 121° Southeast 445 512 33,000  Level FlightAware
10:47PM 44.7050 -96.7320 120° Southeast 444 511 33,000  Level FlightAware
10:48PM 44.6630 -96.6330 121° Southeast 441 507 33,000  Level FlightAware
10:48PM 44.6170 -96.5240 121° Southeast 439 505 33,000  Level FlightAware
10:49PM 44.5760 -96.4280 121° Southeast 437 503 33,000  Level FlightAware
10:50PM 44.5280 -96.3160 121° Southeast 435 501 33,000  Level FlightAware
10:50PM 44.4870 -96.2190 121° Southeast 433 498 33,000  Level FlightAware
10:51PM 44.4470 -96.1250 121° Southeast 433 498 33,000  Level FlightAware
10:52PM 44.4010 -96.0190 121° Southeast 432 497 33,000  Level FlightAware
10:52PM 44.3590 -95.9210 121° Southeast 433 498 33,000  Level FlightAware
10:53PM 44.3120 -95.8120 121° Southeast 433 498 33,000  Level FlightAware
10:54PM 44.2710 -95.7170 121° Southeast 434 499 33,000  Level FlightAware
10:55PM 44.2280 -95.6200 122° Southeast 436 502 33,000  Level FlightAware
10:55PM 44.1830 -95.5160 121° Southeast 438 504 33,000  Level FlightAware
10:56PM 44.1400 -95.4190 122° Southeast 437 503 33,000  Level FlightAware
10:57PM 44.0920 -95.3090 121° Southeast 437 503 33,000  Level FlightAware
10:57PM 44.0560 -95.2300 122° Southeast 437 503 33,000  Level FlightAware
10:58PM 44.0080 -95.1190 121° Southeast 438 504 33,000  Level FlightAware
10:59PM 43.9610 -95.0140 122° Southeast 439 505 33,000  Level FlightAware
10:59PM 43.9170 -94.9170 122° Southeast 440 506 33,000  Level FlightAware
11:00PM 43.8680 -94.8080 122° Southeast 439 505 33,000  Level FlightAware
11:01PM 43.8260 -94.7130 121° Southeast 440 506 33,000  Level FlightAware
11:02PM 43.7820 -94.6170 122° Southeast 442 509 33,000  Level FlightAware
11:02PM 43.7350 -94.5130 122° Southeast 443 510 33,000  Level FlightAware
11:03PM 43.6900 -94.4150 122° Southeast 445 512 33,000  Level FlightAware
11:04PM 43.6410 -94.3060 122° Southeast 445 512 33,000  Level FlightAware
11:04PM 43.5960 -94.2080 122° Southeast 444 511 33,000  Level FlightAware
11:05PM 43.5520 -94.1130 123° Southeast 446 513 33,000  Level FlightAware
11:06PM 43.5040 -94.0090 122° Southeast 448 516 33,000  Level FlightAware
11:06PM 43.4590 -93.9110 122° Southeast 449 517 33,000  Level FlightAware
11:07PM 43.4070 -93.8000 123° Southeast 454 522 33,000  Level FlightAware
11:08PM 43.3610 -93.7040 123° Southeast 457 526 33,000  Level FlightAware
11:09PM 43.3100 -93.5950 123° Southeast 462 532 33,000  Level FlightAware
11:09PM 43.2640 -93.4980 123° Southeast 466 536 33,000  Level FlightAware
11:10PM 43.2170 -93.3990 123° Southeast 470 541 33,000  Level FlightAware
11:11PM 43.1610 -93.2820 123° Southeast 473 544 33,000  Level FlightAware
11:11PM 43.1130 -93.1820 123° Southeast 475 547 33,000  Level FlightAware
11:12PM 43.0650 -93.0830 124° Southeast 476 548 33,000  Level FlightAware
11:13PM 43.0120 -92.9730 123° Southeast 477 549 33,000  Level FlightAware
11:13PM 42.9630 -92.8720 124° Southeast 474 545 33,000  Level FlightAware
11:14PM 42.9080 -92.7580 123° Southeast 473 544 33,000  Level FlightAware
11:15PM 42.8610 -92.6620 124° Southeast 470 541 33,000 60 Level FlightAware
11:16PM 42.8080 -92.5530 124° Southeast 468 539 33,100 780 Climbing FlightAware
11:16PM 42.7750 -92.4870 124° Southeast 461 531 34,000 1,380 Climbing FlightAware
11:17PM 42.7130 -92.3610 124° Southeast 464 534 35,000 660 Climbing FlightAware
11:18PM 42.6660 -92.2670 124° Southeast 469 540 35,000  Level FlightAware
11:18PM 42.6090 -92.1510 124° Southeast 471 542 35,000  Level FlightAware
11:19PM 42.5530 -92.0380 124° Southeast 472 543 35,000  Level FlightAware
11:20PM 42.5060 -91.9460 125° Southeast 473 544 35,000  Level FlightAware
11:20PM 42.4580 -91.8480 124° Southeast 472 543 35,000  Level FlightAware
11:21PM 42.3980 -91.7310 125° Southeast 472 543 35,000  Level FlightAware
11:22PM 42.3550 -91.6440 124° Southeast 473 544 35,000  Level FlightAware
11:23PM 42.2960 -91.5280 124° Southeast 471 542 35,000  Level FlightAware
11:23PM 42.2450 -91.4290 125° Southeast 469 540 35,000  Level FlightAware
11:24PM 42.1970 -91.3330 124° Southeast 469 540 35,000  Level FlightAware
11:25PM 42.1480 -91.2380 125° Southeast 468 539 35,000  Level FlightAware
11:25PM 42.1040 -91.1610 128° Southeast 463 533 35,000  Level FlightAware
11:26PM 42.0240 -91.0370 131° Southeast 462 532 35,000  Level FlightAware
11:27PM 41.9690 -90.9500 130° Southeast 462 532 35,000  Level FlightAware
11:27PM 41.9150 -90.8640 130° Southeast 462 532 35,000  Level FlightAware
11:28PM 41.8520 -90.7630 130° Southeast 462 532 35,000  Level FlightAware
11:29PM 41.7970 -90.6750 130° Southeast 462 532 35,000  Level FlightAware
11:30PM 41.7440 -90.5900 130° Southeast 461 531 35,000  Level FlightAware
11:30PM 41.6810 -90.4910 130° Southeast 461 531 35,000  Level FlightAware
11:31PM 41.6260 -90.4040 130° Southeast 461 531 35,000  Level FlightAware
11:32PM 41.5620 -90.3040 131° Southeast 462 532 35,000  Level FlightAware
11:32PM 41.5080 -90.2200 131° Southeast 463 533 35,000  Level FlightAware
11:33PM 41.4520 -90.1320 130° Southeast 464 534 35,000  Level FlightAware
11:34PM 41.3890 -90.0350 131° Southeast 465 535 35,000  Level FlightAware
11:34PM 41.3340 -89.9510 131° Southeast 466 536 35,000  Level FlightAware
11:35PM 41.2670 -89.8490 131° Southeast 465 535 35,000  Level FlightAware
11:36PM 41.2130 -89.7660 131° Southeast 467 537 35,000  Level FlightAware
11:37PM 41.1550 -89.6780 131° Southeast 466 536 35,000  Level FlightAware
11:37PM 41.0920 -89.5830 131° Southeast 465 535 35,000  Level FlightAware
11:38PM 41.0350 -89.4960 131° Southeast 466 536 35,000  Level FlightAware
11:39PM 40.9720 -89.4030 132° Southeast 465 535 35,000  Level FlightAware
11:39PM 40.9110 -89.3160 133° Southeast 464 534 35,000  Level FlightAware
11:40PM 40.8480 -89.2250 132° Southeast 464 534 35,000  Level FlightAware
11:41PM 40.7970 -89.1520 133° Southeast 463 533 35,000  Level FlightAware
11:41PM 40.7310 -89.0570 132° Southeast 463 533 35,000  Level FlightAware
11:42PM 40.6650 -88.9630 133° Southeast 463 533 35,000  Level FlightAware
11:43PM 40.6080 -88.8820 133° Southeast 463 533 35,000  Level FlightAware
11:44PM 40.5530 -88.8040 133° Southeast 464 534 35,000  Level FlightAware
11:44PM 40.4830 -88.7050 133° Southeast 465 535 35,000  Level FlightAware
11:45PM 40.4240 -88.6220 133° Southeast 465 535 35,000  Level FlightAware
11:46PM 40.3590 -88.5300 133° Southeast 464 534 35,000  Level FlightAware
11:46PM 40.3010 -88.4490 133° Southeast 464 534 35,000  Level FlightAware
11:47PM 40.2350 -88.3560 133° Southeast 464 534 35,000  Level FlightAware
11:48PM 40.1790 -88.2780 133° Southeast 463 533 35,000  Level FlightAware
11:48PM 40.1200 -88.1950 133° Southeast 464 534 35,000  Level FlightAware
11:49PM 40.0300 -88.0720 134° Southeast 466 536 35,000  Level FlightAware
11:50PM 39.9710 -87.9900 133° Southeast 471 542 35,000 -300 Level FlightAware
11:51PM 39.9100 -87.9050 133° Southeast 469 540 34,600 -900 Descending FlightAware
11:51PM 39.8510 -87.8240 133° Southeast 471 542 33,800 -1,440 Descending FlightAware
11:52PM 39.7890 -87.7390 133° Southeast 478 550 32,700 -1,560 Descending FlightAware
11:53PM 39.7200 -87.6460 134° Southeast 485 558 31,600 -1,440 Descending FlightAware
11:54PM 39.6500 -87.5500 133° Southeast 490 564 30,600 -1,080 Descending FlightAware
11:54PM 39.5880 -87.4650 133° Southeast 484 557 30,100 -900 Descending FlightAware
11:55PM 39.5170 -87.3690 134° Southeast 482 555 29,400 -900 Descending FlightAware
11:56PM 39.4570 -87.2880 134° Southeast 476 548 28,900 -780 Descending FlightAware
11:56PM 39.3960 -87.2060 134° Southeast 470 541 28,400 -1,140 Descending FlightAware
11:57PM 39.3300 -87.1180 134° Southeast 461 531 27,300 -2,040 Descending FlightAware
11:58PM 39.2660 -87.0310 134° Southeast 446 513 25,400 -2,700 Descending FlightAware
11:59PM 39.2110 -86.9580 134° Southeast 427 491 23,500 -3,180 Descending FlightAware
11:59PM 39.1530 -86.8810 134° Southeast 414 476 21,200 -3,120 Descending FlightAware
12:00AM 39.1010 -86.8120 134° Southeast 411 473 19,400 -2,580 Descending FlightAware
12:01AM 39.0440 -86.7360 134° Southeast 398 458 17,600 -2,700 Descending FlightAware
12:01AM 38.9890 -86.6640 134° Southeast 400 460 15,400 -1,680 Descending FlightAware
12:02AM 38.9480 -86.6090 134° Southeast 400 460 15,400 -2,880 Level FlightAware
12:03AM 38.8690 -86.5060 135° Southeast 339 390 10,900 -2,520 Descending FlightAware
12:04AM 38.8210 -86.4420 134° Southeast 302 348 10,800 -60 Descending FlightAware
12:05AM 38.7800 -86.3870 134° Southeast 302 348 10,800 -900 Level FlightAware
12:05AM 38.7530 -86.3540 136° Southeast 302 348 9,800 -1,140 Descending FlightAware
12:06AM 38.7230 -86.3140 134° Southeast 302 348 9,800  Level FlightAware
12:06AM 38.6950 -86.2780 135° Southeast 304 350 9,800  Level FlightAware
12:07AM 38.6480 -86.2230 138° Southeast 300 345 9,800  Level FlightAware
12:07AM 38.6160 -86.1850 137° Southeast 301 346 9,800  Level FlightAware
12:08AM 38.5920 -86.1560 137° Southeast 303 349 9,800  Level FlightAware
12:08AM 38.5680 -86.1270 137° Southeast 303 349 9,800  Level FlightAware
12:09AM 38.5430 -86.0950 135° Southeast 303 349 9,800  Level FlightAware
12:09AM 38.5130 -86.0980 184° South 305 351 9,800  Level FlightAware
12:09AM 38.4670 -86.0720 156° South 305 351 9,800  Level FlightAware
12:10AM 38.4350 -86.0540 156° South 307 353 9,800  Level FlightAware
12:10AM 38.3980 -86.0330 156° South 273 314 9,800 -600 Level FlightAware
12:11AM 38.3630 -86.0130 156° South 270 311 9,200 -1,440 Descending FlightAware
12:11AM 38.3330 -85.9960 156° South 274 315 8,500 -1,440 Descending FlightAware
12:12AM 38.3010 -85.9780 156° South 274 315 7,900 -1,200 Descending FlightAware
12:12AM 38.2720 -85.9620 157° South 273 314 7,400 -1,320 Descending FlightAware
12:13AM 38.2370 -85.9430 157° South 269 310 6,700 -1,320 Descending FlightAware
12:13AM 38.2020 -85.9240 157° South 264 304 6,100 -1,200 Descending FlightAware
12:13AM 38.1910 -85.9180 157° South 263 303 5,900 -1,200 Descending FlightAware
12:14AM 38.1570 -85.9000 157° South 260 299 5,300 -1,140 Descending FlightAware
12:14AM 38.1250 -85.8820 156° South 250 288 4,800 -900 Descending FlightAware
12:15AM 38.1010 -85.8630 148° Southeast 235 270 4,500 -780 Descending FlightAware
12:15AM 38.0740 -85.8410 147° Southeast 223 257 4,100 -780 Descending FlightAware
12:16AM 38.0540 -85.8250 148° Southeast 211 243 3,800 -480 Descending FlightAware
12:16AM 38.0430 -85.8130 139° Southeast 197 227 3,800 180 Level FlightAware
12:16AM 38.0400 -85.7990 105° East 185 213 3,900 -540 Climbing FlightAware
12:17AM 38.0460 -85.7650 77° East 181 208 3,400 -1,320 Descending FlightAware
12:17AM 38.0580 -85.7460 51° Northeast 176 203 2,700 -1,440 Descending FlightAware
12:17AM 38.0760 -85.7250 43° Northeast 168 193 2,100 -1,080 Descending FlightAware
12:18AM 38.0830 -85.7220 19° North 166 191 2,000 -960 Descending FlightAware
12:18AM 38.0940 -85.7200 North 169 194 1,700 -1,200 Descending FlightAware
12:18AM 38.1180 -85.7260 349° North 171 197 1,100 -1,020 Descending FlightAware
12:19AM 38.1410 -85.7330 347° North 160 184 700 -780 Descending FlightAware
12:19AM 38.1570 -85.7390 344° North 154 177 400 -720 Descending FlightAware